createdAt,value
2022-09-18T00:00:44.178Z,100985.28
2022-09-18T00:03:48.561Z,100980.03
2022-09-18T00:06:53.499Z,100978.34
2022-09-18T00:09:57.120Z,100982.75
2022-09-18T00:13:01.199Z,100979.31
2022-09-18T00:16:06.736Z,100982.06
2022-09-18T00:19:11.701Z,100982.94
2022-09-18T00:22:16.687Z,100978.63
2022-09-18T00:25:20.303Z,100975.94
2022-09-18T00:28:23.848Z,100973.28
2022-09-18T00:31:30.918Z,100974.16
2022-09-18T00:34:34.738Z,100982.88
2022-09-18T00:37:39.607Z,100985.59
2022-09-18T00:40:43.169Z,100987.38
2022-09-18T00:43:47.322Z,100992.63
2022-09-18T00:46:52.151Z,100991.72
2022-09-18T00:50:04.655Z,100995.13
2022-09-18T00:53:09.818Z,100994.28
2022-09-18T00:56:16.919Z,100993.44
2022-09-18T00:59:28.208Z,100983.06
2022-09-18T01:02:31.864Z,100983.97
2022-09-18T01:06:04.236Z,100982.25
2022-09-18T01:09:28.307Z,100981.41
2022-09-18T01:12:41.557Z,100986.72
2022-09-18T01:15:52.530Z,100991.97
2022-09-18T01:19:11.644Z,100998.00
2022-09-18T01:22:35.782Z,101019.69
2022-09-18T01:26:05.642Z,101009.94
2022-09-18T01:29:21.591Z,101003.78
2022-09-18T01:32:31.467Z,101008.19
2022-09-18T01:35:42.580Z,100989.00
2022-09-18T01:38:53.500Z,100980.44
2022-09-18T01:42:02.145Z,100979.69
2022-09-18T01:45:12.382Z,100972.03
2022-09-18T01:48:23.647Z,100971.25
2022-09-18T01:51:35.283Z,100975.84
2022-09-18T01:54:43.404Z,100980.25
2022-09-18T01:57:54.541Z,100994.19
2022-09-18T02:01:06.942Z,100997.81
2022-09-18T02:04:18.221Z,101012.56
2022-09-18T02:07:30.907Z,101006.47
2022-09-18T02:10:39.639Z,100991.81
2022-09-18T02:13:50.107Z,100992.88
2022-09-18T02:17:02.698Z,100990.28
2022-09-18T02:20:13.937Z,100991.97
2022-09-18T02:23:18.936Z,100991.81
2022-09-18T02:26:23.439Z,101000.28
2022-09-18T02:29:28.467Z,100975.59
2022-09-18T02:32:36.373Z,100979.03
2022-09-18T02:35:50.223Z,100973.81
2022-09-18T02:39:10.646Z,100973.00
2022-09-18T02:42:33.718Z,100968.69
2022-09-18T02:45:50.012Z,100974.91
2022-09-18T02:49:10.034Z,100975.94
2022-09-18T02:52:25.707Z,100971.69
2022-09-18T02:55:41.811Z,100969.94
2022-09-18T02:58:52.825Z,100964.84
2022-09-18T03:01:58.875Z,100964.03
2022-09-18T03:05:04.100Z,100965.88
2022-09-18T03:08:08.038Z,100960.72
2022-09-18T03:11:11.860Z,100960.78
2022-09-18T03:14:15.539Z,100961.66
2022-09-18T03:17:19.244Z,100962.59
2022-09-18T03:20:24.385Z,100967.03
2022-09-18T03:23:28.250Z,100962.66
2022-09-18T03:26:31.863Z,100967.03
2022-09-18T03:29:35.498Z,100953.16
2022-09-18T03:32:39.186Z,100951.41
2022-09-18T03:35:44.692Z,100951.41
2022-09-18T03:38:48.206Z,100970.09
2022-09-18T03:41:51.759Z,100968.66
2022-09-18T03:44:56.535Z,100966.19
2022-09-18T03:48:00.078Z,100958.38
2022-09-18T03:51:05.191Z,100962.69
2022-09-18T03:54:08.779Z,100965.28
2022-09-18T03:57:12.443Z,100976.56
2022-09-18T04:00:16.775Z,100973.94
2022-09-18T04:03:20.344Z,100975.59
2022-09-18T04:06:25.638Z,100978.09
2022-09-18T04:09:29.210Z,100972.78
2022-09-18T04:12:32.764Z,100969.19
2022-09-18T04:15:36.312Z,100960.34
2022-09-18T04:18:40.374Z,100955.84
2022-09-18T04:21:45.452Z,100951.44
2022-09-18T04:24:50.531Z,100945.38
2022-09-18T04:27:54.167Z,100957.66
2022-09-18T04:30:57.776Z,100953.47
2022-09-18T04:34:01.575Z,100957.06
2022-09-18T04:37:10.122Z,100961.53
2022-09-18T04:40:14.288Z,100955.41
2022-09-18T04:43:19.231Z,100952.00
2022-09-18T04:46:24.145Z,100952.06
2022-09-18T04:49:27.796Z,100941.53
2022-09-18T04:52:32.820Z,100946.72
2022-09-18T04:55:36.567Z,100949.22
2022-09-18T04:58:40.147Z,100940.50
2022-09-18T05:01:43.778Z,100943.16
2022-09-18T05:04:47.363Z,100949.28
2022-09-18T05:07:52.419Z,100944.94
2022-09-18T05:10:55.952Z,100939.78
2022-09-18T05:13:59.901Z,100932.81
2022-09-18T05:17:03.494Z,100938.16
2022-09-18T05:20:08.590Z,100946.91
2022-09-18T05:23:13.571Z,100950.44
2022-09-18T05:26:17.165Z,100942.59
2022-09-18T05:29:20.775Z,100954.72
2022-09-18T05:32:24.563Z,100959.03
2022-09-18T05:35:30.598Z,100952.00
2022-09-18T05:38:36.128Z,100953.66
2022-09-18T05:41:39.651Z,100953.56
2022-09-18T05:44:43.292Z,100944.78
2022-09-18T05:47:56.301Z,100937.72
2022-09-18T05:50:59.999Z,100934.94
2022-09-18T05:54:05.367Z,100943.63
2022-09-18T05:57:09.139Z,100940.88
2022-09-18T06:00:15.034Z,100944.13
2022-09-18T06:03:19.433Z,100947.31
2022-09-18T06:06:23.012Z,100952.38
2022-09-18T06:09:28.634Z,100941.78
2022-09-18T06:12:32.194Z,100948.53
2022-09-18T06:15:37.574Z,100944.03
2022-09-18T06:18:41.083Z,100944.53
2022-09-18T06:21:44.718Z,100940.72
2022-09-18T06:24:49.675Z,100946.44
2022-09-18T06:27:58.737Z,100944.28
2022-09-18T06:31:04.435Z,100940.34
2022-09-18T06:34:08.118Z,100940.69
2022-09-18T06:37:12.609Z,100943.94
2022-09-18T06:40:17.878Z,100959.75
2022-09-18T06:43:22.051Z,100950.41
2022-09-18T06:46:25.845Z,100952.50
2022-09-18T06:49:29.429Z,100941.50
2022-09-18T06:52:33.499Z,100941.53
2022-09-18T06:55:38.366Z,100938.50
2022-09-18T06:58:41.949Z,100949.66
2022-09-18T07:01:47.576Z,100950.72
2022-09-18T07:04:52.044Z,100957.78
2022-09-18T07:07:55.866Z,100964.78
2022-09-18T07:11:03.761Z,100975.66
2022-09-18T07:14:08.287Z,100998.56
2022-09-18T07:17:18.052Z,100990.72
2022-09-18T07:20:22.952Z,100979.31
2022-09-18T07:23:26.898Z,100972.94
2022-09-18T07:26:31.879Z,100959.84
2022-09-18T07:29:35.552Z,100958.13
2022-09-18T07:32:39.212Z,100946.59
2022-09-18T07:35:42.863Z,100948.78
2022-09-18T07:38:46.446Z,100950.34
2022-09-18T07:41:51.552Z,100946.84
2022-09-18T07:44:55.044Z,100944.44
2022-09-18T07:48:01.917Z,100943.06
2022-09-18T07:51:06.344Z,100938.28
2022-09-18T07:54:09.911Z,100941.78
2022-09-18T07:57:14.937Z,100941.59
2022-09-18T08:00:18.651Z,100937.66
2022-09-18T08:03:22.194Z,100938.50
2022-09-18T08:06:25.843Z,100950.63
2022-09-18T08:09:29.354Z,100960.66
2022-09-18T08:12:34.530Z,100952.84
2022-09-18T08:15:40.879Z,100936.06
2022-09-18T08:18:44.428Z,100944.25
2022-09-18T08:21:47.995Z,100939.22
2022-09-18T08:24:51.609Z,100942.06
2022-09-18T08:28:01.053Z,100933.34
2022-09-18T08:31:04.970Z,100924.75
2022-09-18T08:34:09.472Z,100925.56
2022-09-18T08:37:13.086Z,100918.59
2022-09-18T08:40:19.056Z,100929.16
2022-09-18T08:43:48.087Z,100915.03
2022-09-18T08:47:04.177Z,100914.50
2022-09-18T08:50:19.540Z,100915.97
2022-09-18T08:53:30.646Z,100909.38
2022-09-18T08:56:35.487Z,100901.63
2022-09-18T08:59:46.643Z,100903.38
2022-09-18T09:02:53.455Z,100891.75
2022-09-18T09:06:01.576Z,100892.72
2022-09-18T09:09:24.854Z,100877.13
2022-09-18T09:12:41.212Z,100872.78
2022-09-18T09:15:57.738Z,100872.91
2022-09-18T09:19:03.816Z,100864.22
2022-09-18T09:22:20.060Z,100860.16
2022-09-18T09:25:36.672Z,100859.53
2022-09-18T09:28:52.748Z,100848.72
2022-09-18T09:32:06.375Z,100848.94
2022-09-18T09:35:30.243Z,100830.72
2022-09-18T09:38:47.196Z,100829.56
2022-09-18T09:41:57.859Z,100815.41
2022-09-18T09:45:13.085Z,100812.91
2022-09-18T09:48:28.934Z,100821.31
2022-09-18T09:51:52.508Z,100814.88
2022-09-18T09:55:01.530Z,100815.41
2022-09-18T09:58:17.114Z,100836.75
2022-09-18T10:01:27.696Z,100868.25
2022-09-18T10:04:46.030Z,100869.00
2022-09-18T10:07:58.756Z,100896.25
2022-09-18T10:11:08.794Z,100890.00
2022-09-18T10:14:21.006Z,100883.28
2022-09-18T10:17:26.508Z,100897.25
2022-09-18T10:20:34.281Z,100896.59
2022-09-18T10:23:41.409Z,100903.13
2022-09-18T10:26:50.960Z,100897.19
2022-09-18T10:29:55.227Z,100903.38
2022-09-18T10:32:59.850Z,100905.50
2022-09-18T10:36:19.509Z,100904.06
2022-09-18T10:39:31.716Z,100907.53
2022-09-18T10:42:39.272Z,100909.38
2022-09-18T10:45:58.039Z,100899.75
2022-09-18T10:49:23.951Z,100902.00
2022-09-18T10:52:36.226Z,100899.94
2022-09-18T10:55:55.626Z,100889.06
2022-09-18T10:59:32.127Z,100879.06
2022-09-18T11:02:42.850Z,100882.47
2022-09-18T11:05:55.501Z,100874.72
2022-09-18T11:09:04.056Z,100866.81
2022-09-18T11:12:17.517Z,100853.66
2022-09-18T11:15:37.647Z,100842.16
2022-09-18T11:18:41.365Z,100861.09
2022-09-18T11:21:47.704Z,100879.97
2022-09-18T11:25:18.578Z,100892.25
2022-09-18T11:28:29.435Z,100845.44
2022-09-18T11:31:48.029Z,100876.38
2022-09-18T11:34:55.437Z,100862.19
2022-09-18T11:38:06.396Z,100854.41
2022-09-18T11:41:14.108Z,100852.50
2022-09-18T11:44:25.836Z,100844.75
2022-09-18T11:47:42.447Z,100840.63
2022-09-18T11:50:47.075Z,100839.34
2022-09-18T11:53:57.820Z,100847.50
2022-09-18T11:57:06.897Z,100841.53
2022-09-18T12:00:19.258Z,100837.88
2022-09-18T12:03:35.906Z,100834.53
2022-09-18T12:06:51.176Z,100841.97
2022-09-18T12:10:07.405Z,100842.56
2022-09-18T12:13:40.047Z,100846.66
2022-09-18T12:16:52.473Z,100845.84
2022-09-18T12:20:06.339Z,100841.41
2022-09-18T12:23:16.426Z,100856.47
2022-09-18T12:26:31.770Z,100830.44
2022-09-18T12:30:07.157Z,100840.22
2022-09-18T12:33:33.458Z,100848.47
2022-09-18T12:37:02.915Z,100851.13
2022-09-18T12:41:00.827Z,100844.53
2022-09-18T12:44:37.290Z,100817.47
2022-09-18T12:48:05.579Z,100832.03
2022-09-18T12:51:32.905Z,100830.78
2022-09-18T12:55:06.897Z,100824.16
2022-09-18T12:58:35.139Z,100832.09
2022-09-18T13:01:47.666Z,100824.09
2022-09-18T13:04:59.559Z,100828.28
2022-09-18T13:08:11.846Z,100820.66
2022-09-18T13:11:37.756Z,100807.34
2022-09-18T13:14:49.228Z,100806.22
2022-09-18T13:17:59.472Z,100784.28
2022-09-18T13:21:11.362Z,100779.00
2022-09-18T13:24:21.162Z,100780.50
2022-09-18T13:27:27.591Z,100778.72
2022-09-18T13:30:33.654Z,100786.41
2022-09-18T13:33:37.371Z,100784.44
2022-09-18T13:36:46.346Z,100791.00
2022-09-18T13:40:09.234Z,100818.34
2022-09-18T13:43:42.515Z,100829.75
2022-09-18T13:46:46.912Z,100829.00
2022-09-18T13:49:55.808Z,100837.66
2022-09-18T13:53:04.042Z,100831.75
2022-09-18T13:56:09.835Z,100819.69
2022-09-18T13:59:24.139Z,100816.66
2022-09-18T14:02:35.679Z,100813.66
2022-09-18T14:05:41.635Z,100816.22
2022-09-18T14:08:46.607Z,100807.16
2022-09-18T14:11:50.407Z,100793.72
2022-09-18T14:15:04.071Z,100782.34
2022-09-18T14:18:15.264Z,100783.59
2022-09-18T14:21:28.545Z,100778.38
2022-09-18T14:25:00.019Z,100782.38
2022-09-18T14:28:08.159Z,100783.13
2022-09-18T14:31:19.687Z,100782.00
2022-09-18T14:34:32.086Z,100774.97
2022-09-18T14:37:37.899Z,100769.19
2022-09-18T14:40:42.982Z,100769.03
2022-09-18T14:43:52.113Z,100766.81
2022-09-18T14:46:58.601Z,100764.13
2022-09-18T14:50:02.283Z,100760.22
2022-09-18T14:53:24.449Z,100760.91
2022-09-18T14:56:35.808Z,100749.53
2022-09-18T14:59:39.712Z,100747.13
2022-09-18T15:02:43.586Z,100751.13
2022-09-18T15:05:54.722Z,100744.69
2022-09-18T15:08:59.459Z,100752.19
2022-09-18T15:12:04.892Z,100746.56
2022-09-18T15:15:29.082Z,100751.22
2022-09-18T15:18:42.515Z,100749.50
2022-09-18T15:21:49.516Z,100743.41
2022-09-18T15:24:53.405Z,100763.06
2022-09-18T15:28:04.270Z,100808.88
2022-09-18T15:31:12.529Z,100799.69
2022-09-18T15:34:21.686Z,100810.34
2022-09-18T15:37:28.686Z,100802.94
2022-09-18T15:40:36.118Z,100797.88
2022-09-18T15:43:43.502Z,100801.31
2022-09-18T15:46:47.357Z,100796.31
2022-09-18T15:49:52.050Z,100786.81
2022-09-18T15:53:08.898Z,100774.72
2022-09-18T15:56:22.062Z,100770.19
2022-09-18T15:59:33.749Z,100773.53
2022-09-18T16:02:39.499Z,100768.06
2022-09-18T16:05:55.026Z,100768.41
2022-09-18T16:09:00.171Z,100762.16
2022-09-18T16:12:41.974Z,100762.28
2022-09-18T16:16:24.211Z,100743.63
2022-09-18T16:19:29.069Z,100752.88
2022-09-18T16:22:41.906Z,100748.88
2022-09-18T16:25:47.707Z,100746.41
2022-09-18T16:28:54.612Z,100745.38
2022-09-18T16:31:59.661Z,100743.25
2022-09-18T16:35:07.421Z,100740.50
2022-09-18T16:38:11.263Z,100739.66
2022-09-18T16:41:14.928Z,100739.34
2022-09-18T16:44:19.454Z,100737.09
2022-09-18T16:47:25.775Z,100739.94
2022-09-18T16:50:29.577Z,100726.94
2022-09-18T16:53:35.375Z,100731.28
2022-09-18T16:56:44.658Z,100734.59
2022-09-18T16:59:51.396Z,100721.75
2022-09-18T17:02:57.668Z,100727.13
2022-09-18T17:06:02.710Z,100730.19
2022-09-18T17:09:07.743Z,100714.84
2022-09-18T17:12:11.365Z,100716.03
2022-09-18T17:15:15.027Z,100718.97
2022-09-18T17:18:20.147Z,100720.81
2022-09-18T17:21:25.148Z,100764.72
2022-09-18T17:24:28.987Z,100763.03
2022-09-18T17:27:32.760Z,100758.94
2022-09-18T17:30:36.324Z,100764.34
2022-09-18T17:33:44.290Z,100760.88
2022-09-18T17:36:48.045Z,100759.53
2022-09-18T17:39:51.661Z,100749.25
2022-09-18T17:42:55.274Z,100747.59
2022-09-18T17:46:01.058Z,100755.56
2022-09-18T17:49:06.682Z,100772.06
2022-09-18T17:52:10.315Z,100744.06
2022-09-18T17:55:14.093Z,100763.59
2022-09-18T17:58:18.014Z,100750.91
2022-09-18T18:01:22.410Z,100739.72
2022-09-18T18:04:27.432Z,100760.00
2022-09-18T18:07:31.111Z,100769.63
2022-09-18T18:10:37.897Z,100776.63
2022-09-18T18:13:44.726Z,100795.81
2022-09-18T18:16:52.393Z,100781.97
2022-09-18T18:19:57.751Z,100780.28
2022-09-18T18:23:01.315Z,100784.63
2022-09-18T18:26:07.339Z,100796.88
2022-09-18T18:29:13.166Z,100807.44
2022-09-18T18:32:16.779Z,100812.75
2022-09-18T18:35:21.770Z,100824.97
2022-09-18T18:38:25.403Z,100810.19
2022-09-18T18:41:31.882Z,100805.91
2022-09-18T18:44:36.616Z,100810.28
2022-09-18T18:47:40.241Z,100806.09
2022-09-18T18:50:45.326Z,100813.16
2022-09-18T18:53:48.883Z,100826.34
2022-09-18T18:56:52.803Z,100838.06
2022-09-18T18:59:57.281Z,100832.22
2022-09-18T19:03:02.421Z,100839.41
2022-09-18T19:06:07.838Z,100838.78
2022-09-18T19:09:18.085Z,100843.97
2022-09-18T19:12:23.559Z,100850.09
2022-09-18T19:15:28.263Z,100858.81
2022-09-18T19:18:31.850Z,100860.41
2022-09-18T19:21:38.755Z,100871.81
2022-09-18T19:24:42.632Z,100869.16
2022-09-18T19:27:46.211Z,100863.88
2022-09-18T19:30:49.791Z,100868.31
2022-09-18T19:33:54.021Z,100875.31
2022-09-18T19:36:59.817Z,100882.31
2022-09-18T19:40:03.832Z,100887.59
2022-09-18T19:43:16.266Z,100895.50
2022-09-18T19:46:27.304Z,100908.50
2022-09-18T19:49:37.196Z,100908.44
2022-09-18T19:52:45.353Z,100917.91
2022-09-18T19:55:50.325Z,100913.53
2022-09-18T19:58:54.071Z,100926.66
2022-09-18T20:01:57.946Z,100926.88
2022-09-18T20:05:02.146Z,100934.06
2022-09-18T20:08:08.256Z,100935.94
2022-09-18T20:11:11.854Z,100944.78
2022-09-18T20:14:16.397Z,100948.34
2022-09-18T20:17:20.088Z,100959.78
2022-09-18T20:20:23.950Z,100962.38
2022-09-18T20:23:28.943Z,100974.66
2022-09-18T20:26:32.923Z,100973.81
2022-09-18T20:29:36.539Z,100974.88
2022-09-18T20:32:40.597Z,100977.56
2022-09-18T20:35:45.501Z,100980.25
2022-09-18T20:38:52.211Z,100975.09
2022-09-18T20:42:00.397Z,100991.66
2022-09-18T20:45:04.169Z,100985.47
2022-09-18T20:48:07.691Z,100992.47
2022-09-18T20:51:14.070Z,100985.31
2022-09-18T20:54:23.215Z,101002.63
2022-09-18T20:57:26.750Z,101009.47
2022-09-18T21:00:30.415Z,101008.44
2022-09-18T21:03:33.959Z,101000.53
2022-09-18T21:06:38.395Z,101009.16
2022-09-18T21:09:43.330Z,101010.91
2022-09-18T21:12:47.505Z,101012.75
2022-09-18T21:15:51.097Z,101016.28
2022-09-18T21:18:59.097Z,101018.91
2022-09-18T21:22:02.635Z,101018.06
2022-09-18T21:25:09.136Z,101021.72
2022-09-18T21:28:13.289Z,101029.59
2022-09-18T21:31:16.973Z,101028.88
2022-09-18T21:34:24.618Z,101028.97
2022-09-18T21:37:28.289Z,101039.38
2022-09-18T21:40:33.331Z,101046.31
2022-09-18T21:43:38.898Z,101054.06
2022-09-18T21:46:42.888Z,101052.31
2022-09-18T21:49:46.490Z,101067.16
2022-09-18T21:52:50.143Z,101068.88
2022-09-18T21:56:01.730Z,101076.56
2022-09-18T21:59:06.066Z,101078.28
2022-09-18T22:02:11.722Z,101079.06
2022-09-18T22:05:16.123Z,101086.91
2022-09-18T22:08:20.756Z,101086.06
2022-09-18T22:11:28.419Z,101092.22
2022-09-18T22:14:34.755Z,101086.16
2022-09-18T22:17:39.190Z,101089.72
2022-09-18T22:20:42.890Z,101092.34
2022-09-18T22:23:48.161Z,101092.41
2022-09-18T22:26:57.133Z,101105.56
2022-09-18T22:30:00.690Z,101099.44
2022-09-18T22:33:05.588Z,101107.41
2022-09-18T22:36:09.975Z,101112.63
2022-09-18T22:39:14.321Z,101114.50
2022-09-18T22:42:19.692Z,101115.53
2022-09-18T22:45:23.414Z,101126.94
2022-09-18T22:48:26.961Z,101127.03
2022-09-18T22:51:30.520Z,101134.03
2022-09-18T22:54:34.189Z,101131.53
2022-09-18T22:57:39.455Z,101140.34
2022-09-18T23:00:42.987Z,101143.00
2022-09-18T23:03:49.252Z,101155.06
2022-09-18T23:06:53.190Z,101158.59
2022-09-18T23:09:56.857Z,101160.28
2022-09-18T23:13:02.736Z,101160.25
2022-09-18T23:16:09.602Z,101165.56
2022-09-18T23:19:17.070Z,101162.06
2022-09-18T23:22:22.260Z,101169.91
2022-09-18T23:25:25.856Z,101163.88
2022-09-18T23:28:34.379Z,101171.63
2022-09-18T23:31:41.273Z,101169.84
2022-09-18T23:34:44.935Z,101175.03
2022-09-18T23:37:49.094Z,101177.66
2022-09-18T23:41:00.535Z,101177.72
2022-09-18T23:44:08.595Z,101183.78
2022-09-18T23:47:12.766Z,101186.44
2022-09-18T23:50:16.601Z,101185.56
2022-09-18T23:53:20.879Z,101187.31
2022-09-18T23:56:25.393Z,101193.50
2022-09-18T23:59:30.446Z,101196.19
